Terminal Aerodrome Forecast
Issued by NWS

Home | Current Version | Previous Version | Text Only | Print | Product List | Glossary On
Versions: 1 2 3 4 5 6 7 8 9 10 11 12 13
000
FTUS45 KRIW 231700
TAFCOD
TAF
KCOD 231722Z 2318/2418 25008KT P6SM SCT080
     FM232000 16006KT P6SM SCT080
     FM232200 VRB10G15KT P6SM VCSH BKN080
     FM240200 20006KT P6SM SKC
      AMD LTD TO CLD VIS AND WIND=

USA.gov is the U.S. government's official web portal to all federal, state and local government web resources and services.